Time;durP1;ratioP1;P1;durP2;ratioP2;P2;SDS_P1;SDS_P2;PMS_P1;PMS_P2;Temp;Humidity;BMP_temperature;BMP_pressure;BME280_temperature;BME280_humidity;BME280_pressure;Samples;Min_cycle;Max_cycle;Signal;HPM_P1;HPM_P2
2024/01/02 00:01:01;;;;;;;6.75;2.90;;;7.30;99.90;;;;;;5023342;28;20037;-71
2024/01/02 00:03:26;;;;;;;4.90;2.60;;;7.30;99.90;;;;;;5010860;28;20056;-72
2024/01/02 00:05:52;;;;;;;2.42;2.08;;;7.30;99.90;;;;;;5027365;28;20041;-70
2024/01/02 00:08:18;;;;;;;6.18;3.58;;;7.30;99.90;;;;;;5044788;28;20025;-71
2024/01/02 00:10:44;;;;;;;2.80;1.95;;;7.30;99.90;;;;;;5026229;28;20040;-70
2024/01/02 00:13:10;;;;;;;8.05;3.00;;;7.30;99.90;;;;;;5026952;28;20044;-71
2024/01/02 00:15:36;;;;;;;11.75;1.92;;;7.40;99.90;;;;;;5044460;28;20299;-70
2024/01/02 00:18:02;;;;;;;7.25;1.90;;;7.40;99.90;;;;;;5010470;28;20025;-71
2024/01/02 00:20:29;;;;;;;6.15;2.25;;;7.40;99.90;;;;;;5025660;28;20056;-70
2024/01/02 00:22:55;;;;;;;6.40;1.40;;;7.40;99.90;;;;;;5043248;28;20017;-70
2024/01/02 00:25:21;;;;;;;2.90;1.17;;;7.40;99.90;;;;;;5043176;28;20314;-71
2024/01/02 00:27:47;;;;;;;11.98;2.92;;;7.40;99.90;;;;;;5026229;28;20373;-70
2024/01/02 00:30:13;;;;;;;7.63;2.75;;;7.30;99.90;;;;;;5016545;28;20033;-71
2024/01/02 00:32:41;;;;;;;7.00;2.63;;;7.30;99.90;;;;;;5026807;28;20188;-72
2024/01/02 00:35:07;;;;;;;11.23;1.88;;;7.30;99.90;;;;;;5043302;28;20025;-70
2024/01/02 00:37:33;;;;;;;4.10;2.75;;;7.30;99.90;;;;;;5044257;28;20029;-71
2024/01/02 00:39:59;;;;;;;5.55;1.20;;;7.30;99.90;;;;;;5025387;28;20095;-70
2024/01/02 00:42:25;;;;;;;3.42;1.63;;;7.30;99.90;;;;;;5010283;28;20022;-70
2024/01/02 00:44:51;;;;;;;1.17;1.05;;;7.30;99.90;;;;;;5044291;28;20214;-72
2024/01/02 00:47:20;;;;;;;4.15;1.08;;;7.30;99.90;;;;;;5043196;28;20199;-70
2024/01/02 00:49:50;;;;;;;0.80;0.80;;;7.30;99.90;;;;;;5009403;28;20068;-70
2024/01/02 00:52:15;;;;;;;3.75;1.33;;;7.30;99.90;;;;;;5044041;28;20025;-70
2024/01/02 00:54:42;;;;;;;9.07;2.42;;;7.30;99.90;;;;;;5026206;28;20325;-70
2024/01/02 00:57:07;;;;;;;4.05;1.02;;;7.30;99.90;;;;;;5034585;28;20038;-71
2024/01/02 00:59:33;;;;;;;5.43;1.75;;;7.30;99.90;;;;;;5034622;28;20032;-70
2024/01/02 01:01:59;;;;;;;6.82;1.65;;;7.30;99.90;;;;;;5026265;28;20025;-71
2024/01/02 01:04:25;;;;;;;2.17;0.60;;;7.30;99.90;;;;;;5009809;28;20302;-70
2024/01/02 01:06:51;;;;;;;0.60;0.60;;;7.30;99.90;;;;;;5025993;28;20022;-70
2024/01/02 01:09:18;;;;;;;0.80;0.80;;;7.30;99.90;;;;;;5042674;28;20025;-70
2024/01/02 01:11:44;;;;;;;3.97;1.50;;;7.30;99.90;;;;;;5025755;28;20328;-71
2024/01/02 01:14:10;;;;;;;1.95;0.88;;;7.30;99.90;;;;;;5042556;28;20025;-71
2024/01/02 01:16:36;;;;;;;0.60;0.47;;;7.30;99.90;;;;;;5042443;28;20025;-70
2024/01/02 01:19:02;;;;;;;2.05;1.08;;;7.30;99.90;;;;;;5024544;28;20096;-70
2024/01/02 01:21:28;;;;;;;1.25;1.08;;;7.30;99.90;;;;;;5026044;28;20029;-70
2024/01/02 01:23:54;;;;;;;1.70;1.23;;;7.30;99.90;;;;;;5042367;28;20021;-70
2024/01/02 01:26:20;;;;;;;1.45;0.55;;;7.30;99.90;;;;;;5040502;28;20022;-71
2024/01/02 01:28:46;;;;;;;1.65;0.65;;;7.30;99.90;;;;;;5023620;28;20321;-70
2024/01/02 01:31:12;;;;;;;1.20;0.75;;;7.30;99.90;;;;;;5023817;28;20009;-70
2024/01/02 01:33:38;;;;;;;1.45;0.75;;;7.30;99.90;;;;;;5042277;28;20052;-70
2024/01/02 01:36:05;;;;;;;0.52;0.40;;;7.10;99.90;;;;;;5025772;28;20318;-70
2024/01/02 01:38:31;;;;;;;4.85;2.40;;;7.30;99.90;;;;;;5025563;28;20033;-70
2024/01/02 01:40:57;;;;;;;0.50;0.50;;;7.30;99.90;;;;;;5024148;28;20036;-71
2024/01/02 01:43:23;;;;;;;0.30;0.30;;;7.30;99.90;;;;;;5025456;28;20026;-70
2024/01/02 01:45:48;;;;;;;0.52;0.40;;;7.30;99.90;;;;;;5043408;28;20021;-70
2024/01/02 01:48:15;;;;;;;1.10;0.52;;;7.30;99.90;;;;;;5043054;28;20033;-70
2024/01/02 01:50:41;;;;;;;0.63;0.63;;;7.30;99.90;;;;;;5024477;28;20311;-71
2024/01/02 01:53:08;;;;;;;0.70;0.70;;;7.30;99.90;;;;;;5042726;28;20025;-70
2024/01/02 01:55:34;;;;;;;0.43;0.43;;;7.30;99.90;;;;;;5041836;28;20028;-70
2024/01/02 01:58:00;;;;;;;0.63;0.45;;;7.30;99.90;;;;;;5025415;28;20370;-70
2024/01/02 02:00:26;;;;;;;2.50;0.80;;;7.30;99.90;;;;;;5040357;28;20013;-71
2024/01/02 02:02:52;;;;;;;0.88;0.35;;;7.30;99.90;;;;;;5025332;28;20081;-72
2024/01/02 02:05:18;;;;;;;0.85;0.40;;;7.30;99.90;;;;;;5025471;28;20017;-70
2024/01/02 02:07:45;;;;;;;0.60;0.50;;;7.30;99.90;;;;;;5008982;28;20358;-71
2024/01/02 02:10:10;;;;;;;0.65;0.65;;;7.30;99.90;;;;;;5008135;28;20088;-70
2024/01/02 02:12:37;;;;;;;0.38;0.38;;;7.40;99.90;;;;;;5008916;28;20367;-71
2024/01/02 02:15:03;;;;;;;0.25;0.25;;;7.30;99.90;;;;;;5025071;28;20013;-71
2024/01/02 02:17:30;;;;;;;0.47;0.47;;;7.30;99.90;;;;;;5042694;28;20040;-71
2024/01/02 02:19:59;;;;;;;0.20;0.20;;;7.40;99.90;;;;;;5042615;28;20243;-71
2024/01/02 02:22:38;;;;;;;0.22;0.22;;;7.30;99.90;;;;;;5044954;28;20021;-71
2024/01/02 02:25:06;;;;;;;0.30;0.30;;;7.40;99.90;;;;;;5029019;28;20091;-71
2024/01/02 02:27:33;;;;;;;0.22;0.22;;;7.40;99.90;;;;;;5045713;28;20017;-71
2024/01/02 02:29:59;;;;;;;0.45;0.45;;;7.50;99.90;;;;;;5028198;28;20357;-71
2024/01/02 02:32:25;;;;;;;0.85;0.85;;;7.50;99.90;;;;;;5045593;28;20021;-71
2024/01/02 02:34:51;;;;;;;0.40;0.40;;;7.50;99.90;;;;;;5028625;28;20049;-71
2024/01/02 02:37:17;;;;;;;0.17;0.17;;;7.50;99.90;;;;;;4996271;28;20048;-73
2024/01/02 02:39:43;;;;;;;0.40;0.40;;;7.50;99.90;;;;;;5027870;28;20017;-72
2024/01/02 02:42:09;;;;;;;2.55;1.00;;;7.50;99.90;;;;;;5012589;28;20028;-72
2024/01/02 02:44:35;;;;;;;0.30;0.30;;;7.60;99.90;;;;;;5046636;28;20341;-71
2024/01/02 02:47:00;;;;;;;1.38;0.45;;;7.60;99.90;;;;;;5012389;28;20076;-71
2024/01/02 02:49:26;;;;;;;0.30;0.30;;;7.60;99.90;;;;;;5027470;28;20021;-71
2024/01/02 02:51:52;;;;;;;0.10;0.10;;;7.60;99.90;;;;;;5046395;28;20051;-73
2024/01/02 02:54:19;;;;;;;0.57;0.57;;;7.60;99.90;;;;;;5044234;28;20027;-71
2024/01/02 02:56:45;;;;;;;0.32;0.32;;;7.60;99.90;;;;;;5045034;28;20120;-71
2024/01/02 02:59:14;;;;;;;0.30;0.30;;;7.60;99.90;;;;;;5027488;28;20033;-72
2024/01/02 03:01:39;;;;;;;0.60;0.60;;;7.60;99.90;;;;;;5045194;28;20017;-72
2024/01/02 03:04:05;;;;;;;0.25;0.25;;;7.70;99.90;;;;;;5046195;28;20032;-72
2024/01/02 03:06:31;;;;;;;0.10;0.10;;;7.70;99.90;;;;;;5028732;28;20067;-72
2024/01/02 03:08:57;;;;;;;0.10;0.10;;;7.70;99.90;;;;;;5044612;28;20017;-72
2024/01/02 03:11:23;;;;;;;1.35;0.40;;;7.70;99.90;;;;;;5045970;28;20026;-72
2024/01/02 03:13:49;;;;;;;0.20;0.20;;;7.80;99.90;;;;;;5045830;28;20086;-72
2024/01/02 03:16:15;;;;;;;0.55;0.20;;;7.80;99.90;;;;;;5011925;28;20265;-72
2024/01/02 03:18:41;;;;;;;0.10;0.10;;;7.80;99.90;;;;;;5044469;28;20025;-72
2024/01/02 03:21:11;;;;;;;0.15;0.15;;;7.80;99.90;;;;;;5044119;28;20211;-71
2024/01/02 03:23:37;;;;;;;0.17;0.17;;;7.90;99.90;;;;;;5045357;28;20044;-71
2024/01/02 03:26:04;;;;;;;0.20;0.20;;;7.80;99.90;;;;;;5028150;28;20017;-70
2024/01/02 03:28:31;;;;;;;2.60;0.13;;;7.90;99.90;;;;;;5028228;28;20031;-71
2024/01/02 03:30:57;;;;;;;0.43;0.43;;;7.90;99.90;;;;;;5042865;28;20013;-73
2024/01/02 03:33:23;;;;;;;0.10;0.10;;;7.90;99.90;;;;;;5011948;28;20021;-71
2024/01/02 03:35:49;;;;;;;0.55;0.22;;;8.00;99.90;;;;;;5045733;28;20378;-70
2024/01/02 03:38:15;;;;;;;0.22;0.22;;;8.00;99.90;;;;;;5027383;28;20069;-70
2024/01/02 03:40:41;;;;;;;0.32;0.25;;;8.00;99.90;;;;;;5042887;28;20290;-71
2024/01/02 03:43:07;;;;;;;0.55;0.20;;;8.10;99.90;;;;;;5027715;28;20032;-70
2024/01/02 03:45:33;;;;;;;0.20;0.20;;;8.10;99.90;;;;;;5044086;28;20028;-71
2024/01/02 03:48:00;;;;;;;0.10;0.10;;;8.10;99.90;;;;;;5011144;28;20191;-70
2024/01/02 03:50:26;;;;;;;0.20;0.20;;;8.20;99.90;;;;;;5042812;28;20032;-70
2024/01/02 03:52:52;;;;;;;0.10;0.10;;;8.20;99.90;;;;;;5044812;28;20029;-73
2024/01/02 03:55:18;;;;;;;0.10;0.10;;;8.20;99.90;;;;;;5045200;28;20063;-72
2024/01/02 03:57:44;;;;;;;0.40;0.40;;;8.20;99.90;;;;;;5027562;28;20045;-73
2024/01/02 04:00:10;;;;;;;0.30;0.30;;;8.30;99.90;;;;;;5026424;28;20053;-73
2024/01/02 04:02:37;;;;;;;0.20;0.20;;;8.30;99.90;;;;;;5027651;28;20029;-73
2024/01/02 04:05:03;;;;;;;0.75;0.30;;;8.40;99.90;;;;;;5027311;28;20204;-72
2024/01/02 04:07:29;;;;;;;0.10;0.10;;;8.40;99.90;;;;;;5027027;28;20041;-72
2024/01/02 04:09:55;;;;;;;0.20;0.20;;;8.50;99.90;;;;;;5036124;28;20077;-72
2024/01/02 04:12:21;;;;;;;0.65;0.65;;;8.50;99.90;;;;;;5007626;28;20311;-72
2024/01/02 04:14:47;;;;;;;0.25;0.25;;;8.60;99.90;;;;;;4991335;28;20025;-72
2024/01/02 04:17:14;;;;;;;0.65;0.20;;;8.60;99.90;;;;;;5029260;28;20076;-72
2024/01/02 04:19:39;;;;;;;0.10;0.10;;;8.70;99.90;;;;;;5009588;28;20085;-73
2024/01/02 04:22:05;;;;;;;0.20;0.20;;;8.80;99.90;;;;;;5026646;28;20049;-72
2024/01/02 04:24:31;;;;;;;0.13;0.13;;;8.70;99.90;;;;;;5043685;28;20029;-72
2024/01/02 04:26:57;;;;;;;0.10;0.10;;;8.80;99.90;;;;;;5043464;28;20188;-74
2024/01/02 04:29:23;;;;;;;0.10;0.10;;;8.80;99.90;;;;;;5042792;28;20017;-72
2024/01/02 04:31:49;;;;;;;0.10;0.10;;;8.90;99.90;;;;;;5044554;28;20030;-72
2024/01/02 04:34:15;;;;;;;0.20;0.20;;;8.90;99.90;;;;;;5043446;28;20033;-72
2024/01/02 04:36:41;;;;;;;0.20;0.20;;;8.90;99.90;;;;;;4994162;28;20041;-73
2024/01/02 04:39:07;;;;;;;0.20;0.20;;;8.90;99.90;;;;;;4993438;28;20017;-72
2024/01/02 04:41:33;;;;;;;0.17;0.17;;;8.90;99.90;;;;;;5012061;28;20056;-73
2024/01/02 04:43:59;;;;;;;0.20;0.20;;;9.00;99.90;;;;;;5042677;28;20032;-72
2024/01/02 04:46:27;;;;;;;0.40;0.40;;;9.10;99.90;;;;;;5026694;28;20044;-72
2024/01/02 04:48:54;;;;;;;0.38;0.38;;;9.10;99.90;;;;;;5026170;28;20025;-72
2024/01/02 04:51:20;;;;;;;0.20;0.20;;;9.10;99.90;;;;;;5039629;28;20037;-73
2024/01/02 04:53:46;;;;;;;0.10;0.10;;;9.20;99.90;;;;;;5024466;28;20030;-71
2024/01/02 04:56:12;;;;;;;0.20;0.20;;;9.20;99.90;;;;;;5006662;28;20076;-72
2024/01/02 04:58:38;;;;;;;0.15;0.15;;;9.30;99.90;;;;;;5006724;28;20100;-72
2024/01/02 05:01:05;;;;;;;0.22;0.22;;;9.30;99.90;;;;;;5039599;28;20045;-73
2024/01/02 05:03:31;;;;;;;0.28;0.28;;;9.30;99.90;;;;;;5043613;28;20010;-72
2024/01/02 05:05:57;;;;;;;0.30;0.30;;;9.40;99.90;;;;;;5009791;28;20036;-73
2024/01/02 05:08:23;;;;;;;0.30;0.30;;;9.40;99.90;;;;;;5042667;28;20014;-71
2024/01/02 05:10:48;;;;;;;0.40;0.40;;;9.50;99.90;;;;;;5035028;28;20018;-71
2024/01/02 05:13:15;;;;;;;0.35;0.35;;;9.50;99.90;;;;;;5006389;28;20018;-72
2024/01/02 05:15:41;;;;;;;0.30;0.30;;;9.60;99.90;;;;;;5022914;28;20021;-72
2024/01/02 05:18:06;;;;;;;0.10;0.10;;;9.70;99.90;;;;;;5018324;28;20033;-72
2024/01/02 05:20:32;;;;;;;0.35;0.35;;;9.70;99.90;;;;;;5042334;28;20092;-73
2024/01/02 05:23:03;;;;;;;0.20;0.20;;;9.70;99.90;;;;;;5025738;28;20075;-72
2024/01/02 05:25:31;;;;;;;0.15;0.15;;;9.70;99.90;;;;;;5042428;28;20052;-70
2024/01/02 05:27:57;;;;;;;0.20;0.20;;;9.80;99.90;;;;;;5043438;28;20018;-71
2024/01/02 05:30:23;;;;;;;0.30;0.30;;;9.80;99.90;;;;;;5042591;28;20033;-70
2024/01/02 05:32:49;;;;;;;0.20;0.20;;;9.90;99.90;;;;;;5043388;28;20022;-72
2024/01/02 05:35:14;;;;;;;0.20;0.20;;;9.90;99.90;;;;;;5042688;28;20425;-71
2024/01/02 05:37:41;;;;;;;0.20;0.20;;;10.00;99.90;;;;;;5023342;28;20108;-71
2024/01/02 05:40:09;;;;;;;0.13;0.13;;;10.00;99.90;;;;;;5014708;28;20025;-71
2024/01/02 05:42:35;;;;;;;0.20;0.20;;;10.10;99.90;;;;;;5042030;28;20013;-71
2024/01/02 05:45:01;;;;;;;0.20;0.20;;;10.10;99.90;;;;;;5025655;28;20033;-72
2024/01/02 05:47:27;;;;;;;0.20;0.20;;;10.10;99.90;;;;;;5008891;28;20013;-74
2024/01/02 05:49:53;;;;;;;0.20;0.20;;;10.20;99.90;;;;;;5039971;28;20092;-72
2024/01/02 05:52:19;;;;;;;0.20;0.20;;;10.20;99.90;;;;;;5022172;28;20084;-70
2024/01/02 05:54:45;;;;;;;0.20;0.20;;;10.20;99.90;;;;;;5016909;28;20067;-72
2024/01/02 05:57:11;;;;;;;0.20;0.20;;;10.30;99.90;;;;;;5041898;28;20030;-72
2024/01/02 05:59:37;;;;;;;0.20;0.20;;;10.30;99.90;;;;;;5041215;28;20040;-74
2024/01/02 06:02:04;;;;;;;0.20;0.20;;;10.30;99.90;;;;;;5008710;28;20005;-75
2024/01/02 06:04:30;;;;;;;0.40;0.20;;;10.30;99.90;;;;;;5042163;28;20090;-75
2024/01/02 06:06:56;;;;;;;0.30;0.20;;;10.30;99.90;;;;;;5042310;28;20045;-76
2024/01/02 06:09:22;;;;;;;1.00;0.20;;;10.40;99.90;;;;;;5023152;28;20020;-72
2024/01/02 06:11:48;;;;;;;0.45;0.28;;;10.40;99.90;;;;;;5041003;28;20053;-75
2024/01/02 06:14:15;;;;;;;0.20;0.20;;;10.50;99.90;;;;;;5024821;28;20037;-74
2024/01/02 06:16:41;;;;;;;0.38;0.38;;;10.50;99.90;;;;;;5040913;28;20461;-72
2024/01/02 06:19:07;;;;;;;0.20;0.20;;;10.50;99.90;;;;;;5022360;28;20071;-72
2024/01/02 06:21:33;;;;;;;0.30;0.30;;;10.30;99.90;;;;;;5023438;28;20022;-71
2024/01/02 06:23:59;;;;;;;0.40;0.40;;;10.50;99.90;;;;;;5008388;28;20049;-70
2024/01/02 06:26:25;;;;;;;0.60;0.60;;;10.60;99.90;;;;;;5037260;28;20210;-71
2024/01/02 06:28:51;;;;;;;0.43;0.28;;;10.60;99.90;;;;;;5041290;28;20093;-73
2024/01/02 06:31:20;;;;;;;0.52;0.50;;;10.60;99.90;;;;;;5007024;28;20318;-73
2024/01/02 06:33:46;;;;;;;0.30;0.30;;;10.60;99.90;;;;;;5024479;28;20052;-73
2024/01/02 06:36:13;;;;;;;0.40;0.40;;;10.70;99.90;;;;;;5024668;28;20059;-72
2024/01/02 06:38:38;;;;;;;0.50;0.50;;;10.60;99.90;;;;;;5032676;28;20046;-72
2024/01/02 06:41:04;;;;;;;0.40;0.40;;;10.70;99.90;;;;;;5039049;28;20361;-72
2024/01/02 06:43:30;;;;;;;0.40;0.40;;;10.70;99.90;;;;;;5024510;28;20026;-73
2024/01/02 06:45:56;;;;;;;0.38;0.38;;;10.70;99.90;;;;;;5040941;28;20313;-74
2024/01/02 06:48:22;;;;;;;0.50;0.50;;;10.80;99.90;;;;;;5041061;28;20041;-72
2024/01/02 06:50:48;;;;;;;0.30;0.30;;;10.70;99.90;;;;;;5007248;28;20048;-72
2024/01/02 06:53:14;;;;;;;0.80;0.50;;;10.80;99.90;;;;;;5042328;28;20033;-71
2024/01/02 06:55:40;;;;;;;0.63;0.63;;;10.80;99.90;;;;;;5024890;28;20139;-72
2024/01/02 06:58:06;;;;;;;2.28;0.60;;;10.80;99.90;;;;;;5041008;28;20046;-71
2024/01/02 07:00:32;;;;;;;0.30;0.30;;;10.80;99.90;;;;;;5040608;28;20030;-71
2024/01/02 07:02:59;;;;;;;3.05;0.93;;;10.80;99.90;;;;;;5033403;28;20049;-72
2024/01/02 07:05:25;;;;;;;1.00;1.00;;;10.90;99.90;;;;;;5019750;28;20373;-70
2024/01/02 07:07:51;;;;;;;1.98;0.90;;;10.90;99.90;;;;;;5025655;28;20029;-71
2024/01/02 07:10:17;;;;;;;1.40;1.15;;;11.00;99.90;;;;;;5010034;28;20318;-70
2024/01/02 07:12:44;;;;;;;2.72;1.42;;;11.00;99.90;;;;;;5044622;28;20040;-70
2024/01/02 07:15:10;;;;;;;1.48;1.20;;;11.00;99.90;;;;;;5026745;28;20025;-71
2024/01/02 07:17:35;;;;;;;1.20;1.08;;;11.00;99.90;;;;;;5020077;28;20071;-70
2024/01/02 07:20:02;;;;;;;1.63;0.85;;;11.00;99.90;;;;;;5009138;28;20021;-71
2024/01/02 07:22:28;;;;;;;5.47;1.90;;;11.00;99.90;;;;;;5045302;28;20318;-70
2024/01/02 07:24:55;;;;;;;0.70;0.70;;;11.00;99.90;;;;;;5011604;28;20041;-71
2024/01/02 07:27:21;;;;;;;1.20;0.70;;;11.00;99.90;;;;;;5027425;28;20064;-70
2024/01/02 07:29:48;;;;;;;3.85;2.25;;;11.00;99.90;;;;;;5042682;28;20041;-70
2024/01/02 07:32:14;;;;;;;1.20;1.10;;;11.00;99.90;;;;;;5027779;28;20083;-70
2024/01/02 07:34:40;;;;;;;9.00;7.47;;;11.00;99.90;;;;;;5026300;28;20017;-69
2024/01/02 07:37:06;;;;;;;5.40;4.43;;;11.10;99.90;;;;;;5011391;28;20108;-73
2024/01/02 07:39:33;;;;;;;7.68;6.97;;;11.10;99.90;;;;;;5044019;28;20025;-70
2024/01/02 07:41:59;;;;;;;46.50;36.03;;;11.10;99.90;;;;;;5043442;28;20014;-71
2024/01/02 07:44:28;;;;;;;9.07;7.65;;;11.10;99.90;;;;;;5028204;28;20021;-70
2024/01/02 07:46:53;;;;;;;4.28;3.88;;;11.00;99.90;;;;;;4978277;28;20088;-72
2024/01/02 07:49:19;;;;;;;7.63;5.45;;;11.00;99.90;;;;;;5025717;28;20029;-71
2024/01/02 07:51:46;;;;;;;10.23;9.18;;;11.10;99.90;;;;;;5010795;28;20025;-71
2024/01/02 07:54:12;;;;;;;3.70;3.15;;;11.10;99.90;;;;;;5010885;28;20028;-70
2024/01/02 07:56:38;;;;;;;17.92;13.98;;;11.10;99.90;;;;;;5010809;28;20061;-70
2024/01/02 07:59:04;;;;;;;2.95;2.75;;;11.10;99.90;;;;;;5042466;28;20052;-70
2024/01/02 08:01:29;;;;;;;1.77;1.67;;;11.10;99.90;;;;;;5026482;28;20350;-71
2024/01/02 08:03:55;;;;;;;0.75;0.75;;;11.10;99.90;;;;;;5044666;28;20063;-71
2024/01/02 08:06:21;;;;;;;1.10;1.10;;;11.10;99.90;;;;;;5010959;28;20188;-69
2024/01/02 08:08:47;;;;;;;1.60;0.90;;;11.10;99.90;;;;;;5043930;28;20362;-70
2024/01/02 08:11:13;;;;;;;1.20;1.10;;;11.10;99.90;;;;;;5042680;28;20238;-72
2024/01/02 08:13:39;;;;;;;1.23;1.13;;;11.10;99.90;;;;;;5005139;28;20237;-71
2024/01/02 08:16:05;;;;;;;0.55;0.55;;;11.10;99.90;;;;;;5021675;28;20323;-71
2024/01/02 08:18:33;;;;;;;1.48;1.45;;;11.10;99.90;;;;;;5041883;28;20325;-71
2024/01/02 08:20:59;;;;;;;3.22;3.03;;;11.10;99.90;;;;;;5039399;28;20104;-72
2024/01/02 08:23:25;;;;;;;4.03;3.72;;;11.10;99.90;;;;;;5023488;28;20076;-71
2024/01/02 08:25:51;;;;;;;4.80;3.97;;;11.10;99.90;;;;;;5026570;28;20253;-71
2024/01/02 08:28:18;;;;;;;10.20;9.15;;;11.10;99.90;;;;;;5026077;28;20033;-71
2024/01/02 08:30:44;;;;;;;4.65;3.58;;;11.10;99.90;;;;;;5041861;28;20032;-72
2024/01/02 08:33:10;;;;;;;4.53;4.07;;;11.10;99.90;;;;;;5018413;28;20026;-71
2024/01/02 08:35:36;;;;;;;3.30;3.10;;;11.10;99.90;;;;;;5011720;28;20033;-70
2024/01/02 08:38:03;;;;;;;6.00;5.50;;;11.10;99.90;;;;;;4992420;28;20081;-70
2024/01/02 08:40:29;;;;;;;1.25;1.10;;;11.20;99.90;;;;;;5033234;28;20041;-70
2024/01/02 08:42:56;;;;;;;3.20;2.92;;;11.10;99.90;;;;;;5022007;28;20096;-71
2024/01/02 08:45:22;;;;;;;10.13;9.20;;;11.10;99.90;;;;;;4989661;28;20026;-70
2024/01/02 08:47:48;;;;;;;3.25;3.05;;;11.10;99.90;;;;;;5027490;28;20031;-70
2024/01/02 08:50:14;;;;;;;9.18;7.95;;;;;;;;;;5024196;28;20044;-70
2024/01/02 08:52:40;;;;;;;3.00;1.95;;;11.10;99.90;;;;;;5042449;28;20032;-72
2024/01/02 08:55:07;;;;;;;2.55;2.33;;;11.10;99.90;;;;;;5008538;28;20267;-72
2024/01/02 08:57:32;;;;;;;5.57;5.07;;;11.20;99.90;;;;;;5042224;28;20033;-70
2024/01/02 08:59:58;;;;;;;6.15;5.55;;;11.10;99.90;;;;;;5041459;28;20040;-71
2024/01/02 09:02:24;;;;;;;10.30;6.82;;;11.10;99.90;;;;;;5027570;28;20030;-70
2024/01/02 09:04:50;;;;;;;4.72;4.38;;;11.10;99.90;;;;;;5032830;28;20064;-70
2024/01/02 09:07:15;;;;;;;10.15;9.30;;;11.10;99.90;;;;;;5006406;28;20064;-71
2024/01/02 09:09:41;;;;;;;5.97;5.35;;;11.20;99.90;;;;;;5021258;28;20025;-71
2024/01/02 09:12:08;;;;;;;2.58;2.47;;;11.20;99.90;;;;;;5042561;28;20236;-71
2024/01/02 09:14:36;;;;;;;6.63;6.13;;;11.10;99.90;;;;;;5025711;28;20099;-70
2024/01/02 09:17:03;;;;;;;2.70;2.50;;;11.10;99.90;;;;;;5042688;28;20075;-72
2024/01/02 09:19:30;;;;;;;6.40;5.80;;;11.10;99.90;;;;;;5038350;28;20215;-71
2024/01/02 09:21:55;;;;;;;3.35;3.05;;;11.10;99.90;;;;;;5022528;28;20056;-71
2024/01/02 09:24:21;;;;;;;1.65;1.48;;;11.10;99.90;;;;;;5023704;28;20238;-71
2024/01/02 09:26:51;;;;;;;1.60;1.25;;;11.10;99.90;;;;;;5006132;28;20113;-71
2024/01/02 09:29:17;;;;;;;2.58;0.80;;;11.20;99.90;;;;;;5023216;28;20025;-70
2024/01/02 09:31:43;;;;;;;0.63;0.60;;;11.20;99.90;;;;;;5005605;28;20022;-71
2024/01/02 09:34:10;;;;;;;1.77;1.10;;;11.20;99.90;;;;;;5005970;28;20320;-70
2024/01/02 09:36:37;;;;;;;0.85;0.85;;;11.30;99.90;;;;;;5020398;28;20025;-71
2024/01/02 09:39:03;;;;;;;0.60;0.60;;;11.30;99.90;;;;;;5005244;28;20054;-71
2024/01/02 09:41:54;;;;;;;0.63;0.63;;;11.30;99.90;;;;;;5043478;28;20029;-71
2024/01/02 09:44:32;;;;;;;0.70;0.70;;;11.30;99.90;;;;;;5009128;28;20029;-71
2024/01/02 09:47:36;;;;;;;0.30;0.30;;;11.30;99.90;;;;;;5025536;28;20036;-71
2024/01/02 09:50:27;;;;;;;0.95;0.50;;;11.30;99.90;;;;;;5040663;28;20083;-70
2024/01/02 09:53:20;;;;;;;0.80;0.80;;;11.30;99.90;;;;;;5024950;28;20029;-70
2024/01/02 09:56:09;;;;;;;0.45;0.45;;;11.30;99.90;;;;;;5024861;28;20025;-71
2024/01/02 09:59:18;;;;;;;0.63;0.63;;;11.40;99.90;;;;;;5024728;28;20029;-71
2024/01/02 10:02:02;;;;;;;0.60;0.60;;;11.40;99.90;;;;;;4989232;28;20032;-71
2024/01/02 10:04:57;;;;;;;0.47;0.45;;;11.40;99.90;;;;;;5022546;28;20053;-70
2024/01/02 10:08:05;;;;;;;0.30;0.30;;;11.50;99.90;;;;;;4998452;28;20223;-71
2024/01/02 10:10:34;;;;;;;0.28;0.28;;;11.40;99.90;;;;;;5025393;28;20037;-72
2024/01/02 10:13:09;;;;;;;2.00;0.50;;;11.50;99.90;;;;;;5024935;28;20013;-72
2024/01/02 10:15:51;;;;;;;1.48;0.20;;;11.40;99.90;;;;;;5041583;28;20032;-70
2024/01/02 10:18:39;;;;;;;0.20;0.20;;;11.50;99.90;;;;;;5023910;28;20083;-72
2024/01/02 10:21:30;;;;;;;1.50;1.48;;;11.40;99.90;;;;;;5041084;28;20025;-70
2024/01/02 10:24:26;;;;;;;1.52;1.40;;;11.40;99.90;;;;;;5039627;28;20306;-69
2024/01/02 10:27:14;;;;;;;0.50;0.50;;;11.30;99.90;;;;;;5019716;28;20028;-72
2024/01/02 10:29:57;;;;;;;0.75;0.75;;;11.20;99.90;;;;;;5020181;28;20037;-72
2024/01/02 10:32:35;;;;;;;1.27;1.27;;;11.20;99.90;;;;;;5032630;28;20025;-72
2024/01/02 10:35:31;;;;;;;1.38;1.38;;;11.10;99.90;;;;;;5024523;28;20033;-70
2024/01/02 10:38:00;;;;;;;4.03;3.65;;;11.10;99.90;;;;;;5023481;28;20049;-73
2024/01/02 10:40:27;;;;;;;0.65;0.65;;;11.00;99.90;;;;;;5042428;28;20333;-73
2024/01/02 10:43:05;;;;;;;1.52;0.70;;;11.00;99.90;;;;;;5028884;28;20049;-72
2024/01/02 10:45:41;;;;;;;0.90;0.90;;;10.90;99.90;;;;;;5045859;28;20021;-71
2024/01/02 10:48:37;;;;;;;2.13;1.98;;;10.80;99.90;;;;;;5044726;28;20109;-71
2024/01/02 10:51:05;;;;;;;1.38;1.27;;;10.80;99.90;;;;;;5027112;28;20037;-73
2024/01/02 10:53:54;;;;;;;2.58;1.00;;;10.80;99.90;;;;;;5046092;28;20047;-71
2024/01/02 10:56:38;;;;;;;1.33;1.23;;;10.80;99.90;;;;;;5041103;28;20045;-72
2024/01/02 10:59:09;;;;;;;1.58;0.65;;;10.80;99.90;;;;;;5007441;28;20030;-72
2024/01/02 11:01:38;;;;;;;0.43;0.43;;;10.80;99.90;;;;;;5028801;28;20104;-72
2024/01/02 11:04:22;;;;;;;2.40;2.20;;;10.70;99.90;;;;;;5013412;28;20063;-72
2024/01/02 11:07:06;;;;;;;14.80;13.38;;;10.70;99.90;;;;;;5026106;28;20209;-72
2024/01/02 11:09:57;;;;;;;3.30;3.00;;;10.70;99.90;;;;;;5027381;28;20018;-71
2024/01/02 11:12:31;;;;;;;1.30;1.20;;;10.70;99.90;;;;;;5045434;28;20037;-71
2024/01/02 11:14:58;;;;;;;3.05;2.85;;;10.60;99.90;;;;;;5028046;28;20084;-71
2024/01/02 11:17:24;;;;;;;8.13;7.30;;;10.60;99.90;;;;;;5045219;28;20284;-71
2024/01/02 11:20:01;;;;;;;7.53;3.70;;;10.60;99.90;;;;;;5043222;28;20314;-72
2024/01/02 11:22:33;;;;;;;4.28;2.88;;;10.60;99.90;;;;;;5044203;28;20040;-72
2024/01/02 11:25:04;;;;;;;6.45;5.93;;;10.40;99.90;;;;;;5041966;28;20025;-72
2024/01/02 11:27:30;;;;;;;0.85;0.70;;;10.50;99.90;;;;;;5036140;28;20022;-74
2024/01/02 11:30:02;;;;;;;1.83;1.33;;;10.40;99.90;;;;;;5033112;28;20037;-73
2024/01/02 11:33:09;;;;;;;1.73;1.00;;;10.40;99.90;;;;;;5009122;28;20051;-72
2024/01/02 11:35:49;;;;;;;4.43;4.03;;;10.40;99.90;;;;;;4994022;28;20049;-72
2024/01/02 11:38:21;;;;;;;7.45;6.72;;;10.30;99.90;;;;;;5040464;28;20034;-72
2024/01/02 11:41:07;;;;;;;3.05;2.85;;;10.30;99.90;;;;;;5031768;28;20196;-72
2024/01/02 11:43:45;;;;;;;2.50;2.30;;;10.30;99.90;;;;;;5043567;28;20029;-72
2024/01/02 11:46:14;;;;;;;1.45;1.35;;;10.30;99.90;;;;;;5025224;28;20033;-72
2024/01/02 11:48:47;;;;;;;1.08;1.08;;;10.20;99.90;;;;;;5027186;28;20213;-72
2024/01/02 11:51:24;;;;;;;0.90;0.82;;;10.20;99.90;;;;;;5042887;28;20092;-73
2024/01/02 11:54:09;;;;;;;0.75;0.75;;;10.20;99.90;;;;;;5005531;28;20029;-73
2024/01/02 11:56:35;;;;;;;4.03;1.85;;;10.20;99.90;;;;;;5009480;28;20067;-72
2024/01/02 11:59:25;;;;;;;2.35;2.15;;;10.10;99.90;;;;;;5010698;28;20024;-72
2024/01/02 12:02:09;;;;;;;0.80;0.80;;;10.10;99.90;;;;;;5041361;28;20302;-73
2024/01/02 12:04:53;;;;;;;1.83;1.63;;;10.10;99.90;;;;;;5007719;28;20357;-72
2024/01/02 12:07:25;;;;;;;1.95;1.83;;;10.10;99.90;;;;;;5007675;28;20025;-72
2024/01/02 12:09:52;;;;;;;1.00;1.00;;;10.00;99.90;;;;;;5024037;28;20018;-72
2024/01/02 12:12:39;;;;;;;2.17;1.30;;;10.10;99.90;;;;;;5027087;28;20207;-72
2024/01/02 12:15:12;;;;;;;0.90;0.80;;;10.00;99.90;;;;;;5044585;28;20029;-72
2024/01/02 12:17:54;;;;;;;1.20;0.60;;;10.00;99.90;;;;;;5026564;28;20052;-71
2024/01/02 12:20:23;;;;;;;0.57;0.57;;;10.00;99.90;;;;;;5020318;28;20077;-72
2024/01/02 12:22:49;;;;;;;1.65;1.55;;;10.00;99.90;;;;;;5026749;28;20063;-72
2024/01/02 12:25:16;;;;;;;1.15;1.15;;;10.00;99.90;;;;;;5042737;28;20044;-74
2024/01/02 12:27:44;;;;;;;0.70;0.70;;;9.90;99.90;;;;;;5024402;28;20065;-74
2024/01/02 12:30:21;;;;;;;1.05;0.98;;;9.90;99.90;;;;;;5041261;28;20306;-75
2024/01/02 12:33:11;;;;;;;1.85;1.65;;;10.00;99.90;;;;;;5010478;28;20360;-74
2024/01/02 12:35:52;;;;;;;;;;;9.90;99.90;;;;;;5016158;28;20136;-75
2024/01/02 12:38:21;;;;;;;1.77;1.45;;;9.90;99.90;;;;;;5026594;28;19913;-74
2024/01/02 12:40:48;;;;;;;2.05;1.95;;;10.00;99.90;;;;;;5041703;28;20112;-73
2024/01/02 12:43:25;;;;;;;1.00;1.00;;;9.90;99.90;;;;;;5026317;28;20036;-73
2024/01/02 12:46:14;;;;;;;1.27;0.85;;;9.90;99.90;;;;;;5026309;28;20060;-75
2024/01/02 12:48:56;;;;;;;1.30;1.30;;;9.90;99.90;;;;;;5043998;28;20143;-75
2024/01/02 12:51:26;;;;;;;2.67;2.47;;;9.90;99.90;;;;;;5038841;28;20029;-75
2024/01/02 12:53:54;;;;;;;2.20;2.10;;;9.90;99.90;;;;;;5022988;28;20037;-75
2024/01/02 12:56:24;;;;;;;0.98;0.88;;;9.90;99.90;;;;;;5025763;28;20226;-75
2024/01/02 12:58:52;;;;;;;2.15;2.05;;;10.00;99.90;;;;;;5025774;28;20033;-74
2024/01/02 13:01:19;;;;;;;1.38;1.27;;;9.90;99.90;;;;;;5024432;28;20088;-75
2024/01/02 13:03:47;;;;;;;0.70;0.70;;;9.90;99.90;;;;;;5024103;28;20028;-75